Time;durP1;ratioP1;P1;durP2;ratioP2;P2;SDS_P1;SDS_P2;PMS_P1;PMS_P2;Temp;Humidity;BMP_temperature;BMP_pressure;BME280_temperature;BME280_humidity;BME280_pressure;Samples;Min_cycle;Max_cycle;Signal;HPM_P1;HPM_P2
2021/05/11 00:02:04;;;;;;;0.70;0.60;;;15.10;99.90;;;15.57;100.00;-21104.63;5053333;28;20441;-69
2021/05/11 00:04:32;;;;;;;0.70;0.60;;;15.00;99.90;;;15.46;100.00;-21101.75;5053014;28;20419;-68
2021/05/11 00:07:00;;;;;;;0.70;0.60;;;14.90;99.90;;;15.40;100.00;-21100.25;5052188;28;20782;-68
2021/05/11 00:09:27;;;;;;;0.77;0.67;;;14.80;99.90;;;15.24;100.00;-21095.84;5055899;28;20473;-68
2021/05/11 00:11:55;;;;;;;0.70;0.70;;;14.70;99.90;;;15.18;100.00;-21094.19;5057162;28;20483;-67
2021/05/11 00:14:22;;;;;;;0.70;0.60;;;14.60;99.90;;;15.03;100.00;-20654.47;5088321;28;20459;-68
2021/05/11 00:16:49;;;;;;;0.80;0.80;;;14.60;99.90;;;14.97;100.00;-19696.88;5056458;28;20444;-67
2021/05/11 00:19:18;;;;;;;0.80;0.70;;;14.50;99.90;;;15.05;100.00;-18686.63;5056365;28;20438;-68
2021/05/11 00:21:45;;;;;;;0.70;0.67;;;14.50;99.90;;;14.95;100.00;-17301.09;5055295;28;20518;-68
2021/05/11 00:24:12;;;;;;;0.70;0.60;;;14.50;99.90;;;14.94;100.00;-15846.38;5054504;28;20463;-68
2021/05/11 00:26:39;;;;;;;0.70;0.60;;;14.50;99.90;;;14.84;100.00;-13823.41;5055184;28;20444;-68
2021/05/11 00:29:06;;;;;;;0.70;0.60;;;14.40;99.90;;;14.90;100.00;-11442.75;5055700;28;20811;-68
2021/05/11 00:31:34;;;;;;;0.70;0.60;;;14.30;99.90;;;14.80;100.00;-9635.50;5056548;28;20417;-68
2021/05/11 00:34:01;;;;;;;0.70;0.70;;;14.30;99.90;;;14.73;100.00;-7995.09;5054806;28;20455;-71
2021/05/11 00:36:28;;;;;;;0.70;0.60;;;14.30;99.90;;;14.70;92.31;-6769.69;5055912;28;20434;-69
2021/05/11 00:38:56;;;;;;;0.70;0.60;;;14.30;99.90;;;14.75;91.16;-6096.25;5054929;28;20458;-68
2021/05/11 00:41:23;;;;;;;0.70;0.60;;;14.30;99.90;;;14.70;87.31;-4943.59;5055369;28;20477;-69
2021/05/11 00:43:51;;;;;;;0.70;0.60;;;14.20;99.90;;;14.71;86.58;-4104.91;5053891;28;20456;-69
2021/05/11 00:46:18;;;;;;;0.70;0.60;;;14.20;99.90;;;14.80;86.57;-3765.28;5054776;28;20458;-69
2021/05/11 00:48:46;;;;;;;0.70;0.60;;;14.20;99.90;;;14.78;86.97;-4338.06;5055767;28;21016;-69
2021/05/11 00:51:14;;;;;;;0.70;0.60;;;14.20;99.90;;;14.72;86.89;-5293.22;5056206;28;20446;-70
2021/05/11 00:53:43;;;;;;;0.70;0.60;;;14.10;99.90;;;14.70;87.01;-6741.81;5054835;28;20993;-69
2021/05/11 00:56:11;;;;;;;0.80;0.70;;;14.10;99.90;;;14.66;86.73;-8412.25;5055923;28;20433;-70
2021/05/11 00:58:39;;;;;;;0.70;0.60;;;14.10;99.90;;;14.64;86.75;-10716.53;5055791;28;20515;-71
2021/05/11 01:01:06;;;;;;;0.70;0.60;;;14.10;99.90;;;14.67;87.04;-12208.56;5055603;28;20446;-70
2021/05/11 01:03:33;;;;;;;0.70;0.60;;;14.10;99.90;;;14.62;87.39;-13678.50;5054808;28;20469;-70
2021/05/11 01:06:00;;;;;;;0.70;0.60;;;14.10;99.90;;;14.54;87.70;-15091.50;5054162;28;20840;-71
2021/05/11 01:08:28;;;;;;;0.70;0.60;;;14.00;99.90;;;14.49;87.97;-16332.69;5054213;28;20504;-72
2021/05/11 01:10:55;;;;;;;0.70;0.70;;;14.00;99.90;;;14.48;88.27;-17712.56;5054695;28;20775;-71
2021/05/11 01:13:22;;;;;;;0.70;0.60;;;14.00;99.90;;;14.59;88.63;-18812.34;5087180;28;20490;-72
2021/05/11 01:15:51;;;;;;;0.70;0.60;;;14.00;99.90;;;14.53;89.42;-19653.00;5053979;28;20459;-72
2021/05/11 01:18:27;;;;;;;0.70;0.60;;;13.90;99.90;;;14.53;89.89;-20439.53;5053929;28;20446;-72
2021/05/11 01:20:57;;;;;;;0.70;0.60;;;13.90;99.90;;;14.55;90.44;-21077.13;5055285;28;20473;-72
2021/05/11 01:26:20;;;;;;;0.70;0.70;;;14.00;99.90;;;14.51;91.81;-21076.16;5055208;28;20501;-73
2021/05/11 01:31:42;;;;;;;0.70;0.67;;;13.90;99.90;;;14.58;93.32;-21078.09;5053582;28;20430;-74
2021/05/11 01:48:14;;;;;;;0.80;0.63;;;13.80;99.90;;;14.45;96.56;-21074.66;5043539;28;20554;-74
2021/05/11 01:59:11;;;;;;;0.70;0.70;;;13.80;99.90;;;14.41;99.64;-21073.41;5054269;28;20433;-74
2021/05/11 02:23:24;;;;;;;0.70;0.70;;;13.60;99.90;;;14.24;100.00;-21068.88;5034557;28;20513;-74
2021/05/11 02:25:51;;;;;;;0.70;0.60;;;13.60;99.90;;;14.16;100.00;-21066.78;5067955;28;20445;-74
2021/05/11 02:28:19;;;;;;;0.70;0.60;;;13.60;99.90;;;14.17;100.00;-21066.94;5053120;28;20517;-74
2021/05/11 02:30:47;;;;;;;0.70;0.57;;;13.60;99.90;;;14.19;100.00;-21067.63;5051596;28;20457;-74
2021/05/11 02:33:14;;;;;;;0.70;0.60;;;13.60;99.90;;;14.23;100.00;-21068.59;5054278;28;20743;-74
2021/05/11 02:35:41;;;;;;;0.70;0.60;;;13.60;99.90;;;14.19;100.00;-21067.63;5068680;28;20446;-74
2021/05/11 02:38:08;;;;;;;0.70;0.70;;;13.60;99.90;;;14.18;100.00;-21067.34;5053556;28;20456;-74
2021/05/11 02:40:35;;;;;;;0.70;0.70;;;13.60;99.90;;;14.22;100.00;-21068.31;5052785;28;20450;-74
2021/05/11 02:43:10;;;;;;;0.70;0.60;;;13.60;99.90;;;14.26;100.00;-21069.56;5054256;28;20505;-74
2021/05/11 02:45:39;;;;;;;0.70;0.60;;;13.60;99.90;;;14.18;100.00;-21067.22;5054151;28;20412;-74
2021/05/11 02:48:06;;;;;;;0.70;0.60;;;13.60;99.90;;;14.29;100.00;-21070.25;5053449;28;20983;-74
2021/05/11 02:50:34;;;;;;;0.70;0.60;;;13.60;99.90;;;14.27;100.00;-21069.81;5052636;28;20541;-74
2021/05/11 02:53:02;;;;;;;0.70;0.60;;;13.60;99.90;;;14.35;100.00;-21071.75;5053295;28;20450;-74
2021/05/11 02:55:30;;;;;;;0.70;0.60;;;13.60;99.90;;;14.27;100.00;-21069.69;5052497;28;20438;-74
2021/05/11 02:57:58;;;;;;;0.70;0.63;;;13.60;99.90;;;14.24;100.00;-21069.00;5051862;28;20538;-74
2021/05/11 03:00:27;;;;;;;0.70;0.57;;;13.60;99.90;;;14.25;100.00;-21069.16;5053911;28;20409;-74
2021/05/11 03:02:56;;;;;;;0.70;0.60;;;13.60;99.90;;;14.21;100.00;-21068.03;5052488;28;20932;-73
2021/05/11 03:05:24;;;;;;;0.70;0.60;;;13.60;99.90;;;14.22;100.00;-21068.44;5053405;28;20996;-74
2021/05/11 03:07:52;;;;;;;0.70;0.60;;;13.60;99.90;;;14.22;100.00;-21068.31;5050664;28;20907;-74
2021/05/11 03:10:19;;;;;;;0.70;0.60;;;13.60;99.90;;;14.27;100.00;-21069.69;5053551;28;20751;-73
2021/05/11 03:12:47;;;;;;;0.70;0.60;;;13.60;99.90;;;14.22;100.00;-21068.44;5052838;28;20434;-74
2021/05/11 03:15:14;;;;;;;0.70;0.60;;;13.60;99.90;;;14.21;100.00;-21068.03;5052559;28;20430;-73
2021/05/11 03:17:42;;;;;;;0.70;0.60;;;13.60;99.90;;;14.18;100.00;-21067.22;5052413;28;20919;-74
2021/05/11 03:20:12;;;;;;;0.70;0.60;;;13.60;99.90;;;14.13;100.00;-21065.84;5053965;28;20450;-75
2021/05/11 03:22:40;;;;;;;0.70;0.60;;;13.50;99.90;;;14.12;100.00;-21065.56;5034952;28;20435;-74
2021/05/11 03:25:08;;;;;;;0.80;0.70;;;13.50;99.90;;;14.10;100.00;-21065.00;5051951;28;20942;-74
2021/05/11 03:27:35;;;;;;;0.70;0.60;;;13.50;99.90;;;14.07;100.00;-21064.19;5051251;28;20458;-74
2021/05/11 03:30:04;;;;;;;0.70;0.60;;;13.50;99.90;;;14.06;100.00;-21063.91;5085494;28;20745;-74
2021/05/11 03:32:33;;;;;;;0.70;0.60;;;13.50;99.90;;;14.09;100.00;-21064.72;5046619;28;20948;-75
2021/05/11 03:35:00;;;;;;;0.70;0.60;;;13.50;99.90;;;14.08;100.00;-21064.47;5047276;28;20979;-74
2021/05/11 03:37:28;;;;;;;0.70;0.60;;;13.50;99.90;;;14.08;100.00;-21064.47;5048386;28;20445;-74
2021/05/11 03:39:55;;;;;;;0.70;0.60;;;13.50;99.90;;;14.09;100.00;-21064.88;5032387;28;20898;-75
2021/05/11 03:42:27;;;;;;;0.70;0.60;;;13.50;99.90;;;14.09;100.00;-21064.88;5053711;28;20497;-74
2021/05/11 03:44:58;;;;;;;0.70;0.60;;;13.50;99.90;;;14.08;100.00;-21064.47;5056531;28;20463;-75
2021/05/11 03:47:27;;;;;;;0.70;0.60;;;13.50;99.90;;;14.09;100.00;-21064.88;5048868;28;20453;-74
2021/05/11 03:49:55;;;;;;;0.70;0.60;;;13.50;99.90;;;14.09;100.00;-21064.88;5069021;28;20458;-75
2021/05/11 03:52:22;;;;;;;0.70;0.60;;;13.50;99.90;;;14.10;100.00;-21065.00;5073061;28;20436;-75
2021/05/11 03:54:50;;;;;;;0.70;0.60;;;13.50;99.90;;;14.09;100.00;-21064.72;5056038;28;20812;-74
2021/05/11 03:57:18;;;;;;;0.70;0.60;;;13.50;99.90;;;14.08;100.00;-21064.47;5071731;28;21363;-74
2021/05/11 03:59:45;;;;;;;1.17;1.07;;;13.50;99.90;;;14.09;100.00;-21064.88;5049045;28;20448;-74
2021/05/11 04:02:13;;;;;;;0.70;0.60;;;13.40;99.90;;;14.08;100.00;-21064.59;5055366;28;20496;-74
2021/05/11 04:04:40;;;;;;;0.70;0.60;;;13.50;99.90;;;14.08;100.00;-21064.47;5056997;28;20799;-74
2021/05/11 04:07:10;;;;;;;0.70;0.60;;;13.50;99.90;;;14.11;100.00;-21065.28;5055875;28;20454;-75
2021/05/11 04:09:56;;;;;;;0.70;0.60;;;13.50;99.90;;;14.14;100.00;-21066.09;5054268;28;20479;-75
2021/05/11 04:17:45;;;;;;;0.70;0.60;;;13.50;99.90;;;14.19;100.00;-21067.50;5055225;28;20436;-74
2021/05/11 04:20:14;;;;;;;0.70;0.60;;;13.50;99.90;;;14.28;100.00;-21069.97;5055549;28;20813;-74
2021/05/11 04:22:44;;;;;;;0.70;0.60;;;13.50;99.90;;;14.23;100.00;-21068.59;5055532;28;20455;-75
2021/05/11 04:25:13;;;;;;;0.70;0.60;;;13.50;99.90;;;14.21;100.00;-21068.19;5054146;28;20457;-74
2021/05/11 04:27:41;;;;;;;0.70;0.60;;;13.50;99.90;;;14.27;100.00;-21069.69;5056165;28;20484;-74
2021/05/11 04:30:11;;;;;;;0.70;0.60;;;13.50;99.90;;;14.22;100.00;-21068.31;5054710;28;20433;-75
2021/05/11 04:32:38;;;;;;;0.70;0.60;;;13.50;99.90;;;14.23;100.00;-21068.59;5055269;28;20443;-74
2021/05/11 04:35:07;;;;;;;0.70;0.50;;;13.50;99.90;;;14.22;100.00;-21068.44;5054948;28;20434;-74
2021/05/11 04:37:35;;;;;;;0.70;0.67;;;13.50;99.90;;;14.21;100.00;-21068.03;5055551;28;20931;-74
2021/05/11 04:40:05;;;;;;;0.70;0.60;;;13.50;99.90;;;14.25;100.00;-21069.16;5054784;28;20430;-75
2021/05/11 04:42:33;;;;;;;0.70;0.63;;;13.50;99.90;;;14.26;100.00;-21069.41;5056283;28;20423;-73
2021/05/11 04:45:04;;;;;;;0.70;0.60;;;13.50;99.90;;;14.25;100.00;-21069.16;5055646;28;20453;-73
2021/05/11 04:47:51;;;;;;;0.70;0.60;;;13.40;99.90;;;14.21;100.00;-21068.03;5056121;28;20776;-72
2021/05/11 04:50:21;;;;;;;0.70;0.60;;;13.30;99.90;;;14.24;100.00;-21068.88;5055892;28;20426;-73
2021/05/11 04:52:49;;;;;;;0.70;0.60;;;13.30;99.90;;;14.16;100.00;-21066.66;5037883;28;20492;-73
2021/05/11 04:55:19;;;;;;;0.70;0.60;;;13.30;99.90;;;14.08;100.00;-21064.47;5053742;28;20521;-73
2021/05/11 04:57:47;;;;;;;0.70;0.60;;;13.20;99.90;;;14.12;100.00;-21065.56;5037965;28;20568;-73
2021/05/11 05:00:17;;;;;;;0.70;0.60;;;13.20;99.90;;;14.03;100.00;-21063.22;5053716;28;20462;-73
2021/05/11 05:02:49;;;;;;;0.70;0.50;;;13.20;99.90;;;14.06;100.00;-21064.03;5054605;28;20413;-73
2021/05/11 05:05:17;;;;;;;0.70;0.50;;;13.20;99.90;;;13.99;100.00;-21062.25;5055936;28;20809;-74
2021/05/11 05:07:45;;;;;;;0.70;0.60;;;13.20;99.90;;;14.08;100.00;-21064.59;5053821;28;20517;-73
2021/05/11 05:10:13;;;;;;;0.70;0.50;;;13.10;99.90;;;14.07;100.00;-21064.19;5054315;28;20425;-73
2021/05/11 05:12:45;;;;;;;0.70;0.50;;;13.10;99.90;;;14.04;100.00;-21063.34;5055454;28;20411;-73
2021/05/11 05:15:16;;;;;;;0.70;0.60;;;13.10;99.90;;;14.00;100.00;-21062.41;5070963;28;20477;-76
2021/05/11 05:17:43;;;;;;;0.70;0.60;;;13.10;99.90;;;14.00;100.00;-21062.53;5055111;28;20814;-73
2021/05/11 05:20:15;;;;;;;0.70;0.60;;;13.20;99.90;;;14.08;100.00;-21064.47;5055315;28;20415;-73
2021/05/11 05:22:43;;;;;;;0.70;0.60;;;13.20;99.90;;;14.27;100.00;-21069.81;5054201;28;20479;-73
2021/05/11 05:25:14;;;;;;;0.70;0.50;;;13.30;99.90;;;14.29;100.00;-21070.25;5054349;28;20460;-73
2021/05/11 05:30:13;;;;;;;0.70;0.60;;;13.40;99.90;;;14.49;100.00;-21075.59;5055160;28;20477;-73
2021/05/11 05:32:41;;;;;;;0.70;0.60;;;13.50;99.90;;;14.62;100.00;-21079.06;5055394;28;20429;-73
2021/05/11 05:35:10;;;;;;;0.70;0.60;;;13.60;99.90;;;14.76;100.00;-21082.91;5086347;28;20443;-73
2021/05/11 05:37:42;;;;;;;0.73;0.70;;;13.70;99.90;;;14.89;100.00;-21086.50;5054225;28;20470;-73
2021/05/11 05:40:12;;;;;;;0.70;0.60;;;13.70;99.90;;;14.86;100.00;-21085.66;5053785;28;20447;-72
2021/05/11 05:42:40;;;;;;;0.70;0.60;;;13.60;99.90;;;14.97;100.00;-21088.69;5055375;28;20425;-73
2021/05/11 05:45:09;;;;;;;0.70;0.60;;;13.60;99.90;;;14.74;100.00;-21082.34;5053429;28;20419;-74
2021/05/11 05:47:37;;;;;;;0.70;0.63;;;13.60;99.90;;;14.81;100.00;-21084.28;5055479;28;20935;-73
2021/05/11 05:50:09;;;;;;;0.70;0.60;;;13.60;99.90;;;14.83;100.00;-21084.69;5054707;28;20455;-72
2021/05/11 05:52:39;;;;;;;0.70;0.60;;;13.60;99.90;;;15.05;100.00;-21090.75;5053589;28;20431;-75
2021/05/11 05:55:08;;;;;;;0.70;0.60;;;13.70;99.90;;;15.21;100.00;-21095.00;5053585;28;20771;-72
2021/05/11 05:57:36;;;;;;;0.70;0.70;;;13.80;99.90;;;15.30;100.00;-21097.34;5053747;28;20440;-73
2021/05/11 06:00:05;;;;;;;0.70;0.60;;;13.90;99.90;;;15.21;100.00;-21095.16;5053371;28;20791;-73
2021/05/11 06:02:44;;;;;;;0.70;0.60;;;13.90;99.90;;;15.22;100.00;-21095.44;5054105;28;20511;-73
2021/05/11 06:05:14;;;;;;;0.70;0.60;;;14.10;99.90;;;15.17;100.00;-21094.06;5052445;28;21028;-73
2021/05/11 06:07:42;;;;;;;0.70;0.60;;;14.10;99.90;;;15.16;100.00;-21093.78;5053147;28;20482;-74
2021/05/11 06:10:11;;;;;;;0.70;0.60;;;14.00;99.90;;;15.29;100.00;-21097.22;5052955;28;20475;-73
2021/05/11 06:18:02;;;;;;;0.70;0.60;;;13.90;99.90;;;14.88;100.00;-21086.22;5052600;28;20496;-73
2021/05/11 06:20:31;;;;;;;0.70;0.70;;;13.80;99.90;;;14.95;100.00;-21088.13;5053547;28;20936;-74
2021/05/11 06:22:59;;;;;;;0.70;0.60;;;13.80;99.90;;;14.96;100.00;-21088.28;5053113;28;20522;-73
2021/05/11 06:25:28;;;;;;;0.70;0.60;;;13.80;99.90;;;14.89;100.00;-21086.50;5054219;28;20447;-73
2021/05/11 06:27:56;;;;;;;0.70;0.60;;;13.90;99.90;;;14.86;100.00;-21085.66;5053020;28;20469;-74
2021/05/11 06:30:24;;;;;;;0.80;0.70;;;13.80;99.90;;;14.92;100.00;-21087.31;5053787;28;20471;-73
2021/05/11 06:32:54;;;;;;;0.70;0.60;;;13.70;99.90;;;14.86;100.00;-21085.66;5086714;28;20782;-74
2021/05/11 06:35:24;;;;;;;0.80;0.70;;;13.80;99.90;;;14.69;100.00;-21081.13;5052104;28;20454;-73
2021/05/11 06:37:59;;;;;;;0.70;0.70;;;13.80;99.90;;;14.68;100.00;-21080.72;5052507;28;20451;-74
2021/05/11 06:40:28;;;;;;;0.70;0.60;;;13.80;99.90;;;14.70;100.00;-21081.41;5052646;28;20428;-74
2021/05/11 06:42:57;;;;;;;0.70;0.60;;;13.80;99.90;;;14.81;100.00;-21084.16;5054037;28;20426;-73
2021/05/11 06:48:15;;;;;;;0.70;0.60;;;13.70;99.90;;;15.07;100.00;-21091.16;5053853;28;20442;-73
2021/05/11 06:53:37;;;;;;;0.70;0.60;;;14.00;99.90;;;15.06;100.00;-21090.88;5051852;28;20796;-74
2021/05/11 06:56:09;;;;;;;0.70;0.60;;;14.00;99.90;;;15.15;100.00;-21093.38;5052596;28;20917;-73
2021/05/11 06:58:38;;;;;;;0.70;0.60;;;14.10;99.90;;;15.26;100.00;-21096.38;5053768;28;20781;-74
2021/05/11 07:01:07;;;;;;;0.70;0.70;;;14.20;99.90;;;15.40;100.00;-21100.09;5052482;28;20412;-74
2021/05/11 07:03:34;;;;;;;0.70;0.60;;;14.40;99.90;;;15.36;100.00;-21099.13;5051945;28;20432;-72
2021/05/11 07:06:03;;;;;;;0.70;0.60;;;14.60;99.90;;;15.30;100.00;-21097.50;5052698;28;20456;-73
2021/05/11 07:13:57;;;;;;;0.70;0.70;;;14.60;99.90;;;15.69;100.00;-21108.09;5044507;28;21031;-73
2021/05/11 07:16:25;;;;;;;0.70;0.60;;;14.60;99.90;;;15.62;100.00;-21106.16;5051923;28;20489;-72
2021/05/11 07:18:53;;;;;;;0.77;0.70;;;14.60;99.90;;;16.05;100.00;-21117.56;5051984;28;20759;-73
2021/05/11 07:21:21;;;;;;;0.70;0.60;;;14.80;99.90;;;16.17;100.00;-21120.84;5052759;28;20508;-73
2021/05/11 07:23:49;;;;;;;0.70;0.60;;;15.00;99.90;;;16.43;100.00;-21127.88;5053126;28;20814;-73
2021/05/11 07:31:16;;;;;;;0.70;0.60;;;15.40;99.90;;;16.48;100.00;-21129.09;5051961;28;20441;-72
2021/05/11 07:33:46;;;;;;;0.70;0.60;;;15.40;99.90;;;16.43;100.00;-21128.00;5051433;28;20458;-73
2021/05/11 07:36:15;;;;;;;0.80;0.70;;;15.40;99.90;;;16.55;100.00;-21131.16;5048147;28;20447;-73
2021/05/11 07:38:45;;;;;;;0.70;0.70;;;15.50;99.90;;;16.54;100.00;-21130.88;5048398;28;20463;-73
2021/05/11 07:41:14;;;;;;;0.73;0.60;;;15.40;99.90;;;16.73;100.00;-21135.81;5032122;28;20429;-73
2021/05/11 07:43:46;;;;;;;0.70;0.60;;;15.20;99.90;;;16.92;100.00;-21141.03;5065651;28;20435;-72
2021/05/11 08:10:55;;;;;;;0.70;0.60;;;15.10;99.90;;;16.40;100.00;-21127.16;5023459;28;20599;-72
2021/05/11 08:16:12;;;;;;;0.70;0.60;;;15.00;99.90;;;16.49;100.00;-21129.38;5083940;28;20508;-72
2021/05/11 08:19:01;;;;;;;0.70;0.60;;;15.10;99.90;;;16.43;100.00;-21128.00;5051203;28;20484;-71
2021/05/11 08:29:52;;;;;;;0.80;0.70;;;15.20;99.90;;;16.47;100.00;-21128.81;5051418;28;20992;-72
2021/05/11 08:32:20;;;;;;;0.77;0.70;;;15.20;99.90;;;16.22;100.00;-21122.09;5054388;28;20413;-72
2021/05/11 08:34:48;;;;;;;0.70;0.60;;;15.10;99.90;;;16.10;100.00;-21119.06;5050699;28;20509;-71
2021/05/11 08:37:16;;;;;;;0.73;0.63;;;15.00;99.90;;;16.07;100.00;-21118.09;5036724;28;20428;-72
2021/05/11 08:39:44;;;;;;;0.70;0.67;;;15.00;99.90;;;16.14;100.00;-21120.03;5036246;28;20449;-71
2021/05/11 08:42:12;;;;;;;0.70;0.70;;;15.00;99.90;;;16.19;100.00;-21121.41;5052569;28;20493;-72
2021/05/11 08:44:41;;;;;;;0.80;0.60;;;15.10;99.90;;;16.10;100.00;-21118.94;5055700;28;20411;-72
2021/05/11 08:47:11;;;;;;;0.70;0.60;;;15.20;99.90;;;15.97;100.00;-21115.50;5056010;28;20456;-72
2021/05/11 08:49:42;;;;;;;0.70;0.60;;;15.20;99.90;;;16.09;100.00;-21118.66;5038170;28;20561;-72
2021/05/11 09:09:06;;;;;;;0.70;0.70;;;15.70;99.90;;;18.41;100.00;-21180.94;5038726;28;20496;-72
2021/05/11 09:26:00;;;;;;;0.70;0.60;;;17.10;99.90;;;20.16;100.00;-21227.84;5054847;28;20447;-72
2021/05/11 09:28:43;;;;;;;0.70;0.60;;;17.40;99.90;;;19.65;100.00;-21214.31;5054489;28;20468;-70
2021/05/11 10:48:19;;;;;;;0.80;0.70;;;17.80;99.90;;;20.43;100.00;-21235.09;5053763;28;20436;-70
2021/05/11 10:50:52;;;;;;;0.70;0.60;;;17.80;99.90;;;20.60;100.00;-21239.72;5053389;28;20462;-69
2021/05/11 10:53:58;;;;;;;0.70;0.60;;;17.90;99.90;;;20.27;100.00;-21231.00;5053859;28;20436;-70
2021/05/11 10:56:56;;;;;;;0.80;0.77;;;17.80;99.90;;;20.27;100.00;-21231.00;5053486;28;20440;-70
2021/05/11 10:59:35;;;;;;;0.80;0.70;;;17.40;99.90;;;19.71;100.00;-21215.97;5052559;28;20432;-70
2021/05/11 11:02:36;;;;;;;0.70;0.70;;;17.50;99.90;;;19.26;100.00;-21203.78;5053344;28;20428;-70
2021/05/11 11:05:07;;;;;;;0.80;0.70;;;17.20;99.90;;;19.33;100.00;-21205.56;5054180;28;20462;-70
2021/05/11 11:07:40;;;;;;;0.70;0.60;;;17.00;99.90;;;18.70;100.00;-21188.88;5053116;28;20527;-71
2021/05/11 11:10:09;;;;;;;0.70;0.60;;;17.00;99.90;;;18.15;100.00;-21174.09;5053879;28;20456;-70
2021/05/11 11:12:41;;;;;;;0.70;0.60;;;17.00;99.90;;;17.89;100.00;-21166.97;5069152;28;20949;-70
2021/05/11 11:15:18;;;;;;;0.70;0.67;;;16.90;99.90;;;17.90;100.00;-21167.38;5050815;28;20491;-70
2021/05/11 11:17:52;;;;;;;0.70;0.60;;;16.90;99.90;;;17.82;100.00;-21165.31;5052898;28;20908;-69
2021/05/11 11:20:33;;;;;;;0.80;0.73;;;16.70;99.90;;;17.77;100.00;-21163.94;5053716;28;20412;-70
2021/05/11 11:26:09;;;;;;;0.77;0.70;;;16.70;99.90;;;17.68;100.00;-21161.47;5085537;28;20986;-69
2021/05/11 11:28:38;;;;;;;0.70;0.60;;;16.70;99.90;;;17.63;100.00;-21160.09;5051803;28;20533;-69
2021/05/11 11:31:23;;;;;;;0.80;0.60;;;16.70;99.90;;;17.72;100.00;-21162.56;5050970;28;20466;-69
2021/05/11 11:33:52;;;;;;;0.70;0.60;;;16.80;99.90;;;17.70;100.00;-21162.03;5052108;28;20524;-70
2021/05/11 11:36:32;;;;;;;0.70;0.70;;;16.90;99.90;;;17.79;100.00;-21164.34;5052112;28;20424;-70
2021/05/11 11:39:04;;;;;;;0.70;0.60;;;16.90;99.90;;;17.75;100.00;-21163.25;5052054;28;20449;-69
2021/05/11 11:41:34;;;;;;;0.70;0.60;;;16.80;99.90;;;17.62;100.00;-21159.81;5053040;28;20501;-69
2021/05/11 11:44:01;;;;;;;0.70;0.60;;;16.80;99.90;;;17.49;100.00;-21156.25;5047470;28;20808;-70
2021/05/11 11:46:30;;;;;;;0.80;0.70;;;16.60;99.90;;;17.38;100.00;-21153.53;5033693;28;20470;-69
2021/05/11 11:49:04;;;;;;;0.70;0.60;;;16.50;99.90;;;17.10;100.00;-21145.84;5052207;28;20430;-70
2021/05/11 11:51:34;;;;;;;0.70;0.60;;;16.40;99.90;;;16.99;100.00;-21142.97;5052199;28;20468;-72
2021/05/11 11:54:14;;;;;;;0.70;0.63;;;16.30;99.90;;;16.96;100.00;-21142.13;5050469;28;20473;-70
2021/05/11 11:59:14;;;;;;;0.70;0.60;;;16.10;99.90;;;16.80;100.00;-21137.75;5052345;28;20802;-70
2021/05/11 12:01:52;;;;;;;0.70;0.60;;;16.10;99.90;;;16.79;100.00;-21137.63;5052692;28;20425;-71
2021/05/11 12:04:23;;;;;;;0.80;0.67;;;16.00;99.90;;;16.99;100.00;-21142.81;5055380;28;20498;-69
2021/05/11 12:06:52;;;;;;;0.70;0.60;;;16.00;99.90;;;17.07;100.00;-21145.16;5054436;28;20527;-69
2021/05/11 12:09:20;;;;;;;0.70;0.60;;;15.90;99.90;;;16.75;100.00;-21136.50;5053267;28;20556;-69
2021/05/11 12:11:48;;;;;;;0.70;0.60;;;15.80;99.90;;;16.40;100.00;-21127.16;5056851;28;20454;-69
2021/05/11 12:14:17;;;;;;;0.70;0.60;;;15.60;99.90;;;16.30;100.00;-21124.44;5055184;28;20996;-69
2021/05/11 12:16:47;;;;;;;0.70;0.60;;;15.40;99.90;;;16.23;100.00;-21122.50;5055001;28;20447;-69
2021/05/11 12:19:17;;;;;;;0.70;0.70;;;15.30;99.90;;;16.22;100.00;-20903.00;5056885;28;20854;-70
2021/05/11 12:22:01;;;;;;;0.70;0.60;;;15.30;99.90;;;16.30;100.00;-18346.34;5056415;28;20494;-70
2021/05/11 12:24:34;;;;;;;0.70;0.60;;;15.40;99.90;;;16.30;100.00;-15253.78;5056367;28;20528;-72
2021/05/11 12:27:22;;;;;;;0.70;0.60;;;15.30;99.90;;;16.27;100.00;-12203.66;5055688;28;20452;-72
2021/05/11 12:30:00;;;;;;;0.70;0.60;;;15.30;99.90;;;16.27;100.00;-8694.47;5078780;28;20438;-74
2021/05/11 12:32:28;;;;;;;0.70;0.60;;;15.30;99.90;;;16.23;100.00;-5834.09;5055011;28;20441;-74
2021/05/11 12:35:08;;;;;;;0.70;0.60;;;15.30;99.90;;;16.43;100.00;-3387.94;5055566;28;20531;-74
2021/05/11 12:37:49;;;;;;;0.70;0.60;;;15.50;99.90;;;16.70;100.00;-966.00;5055763;28;20438;-74
2021/05/11 12:42:52;;;;;;;0.70;0.60;;;15.70;99.90;;;17.12;100.00;-928.13;5056375;28;20793;-74
2021/05/11 12:45:20;;;;;;;0.80;0.70;;;15.60;99.90;;;16.95;100.00;-628.66;5055821;28;20435;-74
2021/05/11 12:47:52;;;;;;;0.80;0.67;;;15.80;99.90;;;17.09;100.00;-864.63;5053930;28;20443;-74
2021/05/11 12:50:24;;;;;;;0.70;0.60;;;15.80;99.90;;;17.18;100.00;-831.03;5056238;28;20413;-74
2021/05/11 12:53:02;;;;;;;0.70;0.50;;;16.00;99.90;;;17.53;100.00;-1343.78;5054211;28;20482;-74
2021/05/11 12:58:35;;;;;;;0.70;0.60;;;16.30;99.90;;;17.54;100.00;-3208.16;5055189;28;20488;-74
2021/05/11 13:01:27;;;;;;;0.70;0.60;;;16.10;99.90;;;17.92;100.00;-3176.91;5054870;28;20423;-74
2021/05/11 13:15:31;;;;;;;0.80;0.70;;;16.70;99.90;;;17.68;100.00;-6275.44;5051476;28;20992;-75
2021/05/11 13:26:29;;;;;;;0.80;0.70;;;16.70;99.90;;;17.72;100.00;-5616.44;5035858;28;20498;-74
2021/05/11 13:29:16;;;;;;;0.70;0.60;;;16.70;99.90;;;17.53;100.00;-9064.38;5038791;28;20436;-75
2021/05/11 13:31:51;;;;;;;0.70;0.60;;;16.50;99.90;;;17.30;100.00;-13576.97;5054777;28;20550;-73
2021/05/11 13:34:21;;;;;;;0.80;0.70;;;16.50;99.90;;;17.39;100.00;-16814.72;5053862;28;21104;-73
2021/05/11 13:36:48;;;;;;;0.80;0.60;;;16.40;99.90;;;17.41;100.00;-19701.16;5054305;28;21296;-74
2021/05/11 13:39:16;;;;;;;0.70;0.60;;;16.30;99.90;;;17.34;100.00;-21054.34;5053476;28;20471;-72
2021/05/11 13:41:46;;;;;;;0.70;0.60;;;16.30;99.90;;;17.03;100.00;-21143.91;5070606;28;20792;-74
2021/05/11 13:44:14;;;;;;;0.70;0.60;;;16.30;99.90;;;16.80;100.00;-21137.88;5051693;28;20503;-73
2021/05/11 13:46:43;;;;;;;0.70;0.70;;;16.10;99.90;;;16.78;100.00;-21137.34;5052782;28;20448;-74
2021/05/11 13:49:13;;;;;;;0.70;0.60;;;16.00;99.90;;;16.57;100.00;-21131.56;5058526;28;20876;-72
2021/05/11 13:51:42;;;;;;;0.70;0.60;;;15.90;99.90;;;16.58;100.00;-21131.84;5047637;28;20467;-72
2021/05/11 13:54:11;;;;;;;0.70;0.70;;;15.80;99.90;;;16.55;100.00;-21131.03;5054226;28;20503;-73
2021/05/11 14:02:38;;;;;;;0.80;0.70;;;15.80;99.90;;;16.78;100.00;-20118.53;5052222;28;20468;-73
2021/05/11 14:05:08;;;;;;;0.70;0.60;;;15.80;99.90;;;17.04;100.00;-19071.88;5034905;28;20493;-72
2021/05/11 14:07:36;;;;;;;0.70;0.60;;;15.60;99.90;;;17.07;100.00;-18399.03;5044069;28;20438;-73
2021/05/11 14:10:06;;;;;;;0.70;0.60;;;15.60;99.90;;;16.80;100.00;-15333.50;5066397;28;20613;-72
2021/05/11 14:12:35;;;;;;;0.70;0.60;;;15.80;99.90;;;17.11;100.00;-13117.59;5035898;28;20466;-72
2021/05/11 14:15:06;;;;;;;0.80;0.70;;;15.80;99.90;;;17.04;100.00;-7089.22;5086048;28;20436;-72
2021/05/11 14:17:34;;;;;;;0.70;0.60;;;16.00;99.90;;;17.37;100.00;-3819.31;5086056;28;20447;-74
2021/05/11 14:20:03;;;;;;;0.70;0.60;;;15.90;99.90;;;17.43;100.00;-6256.81;5065452;28;20450;-72
2021/05/11 14:22:31;;;;;;;0.70;0.60;;;15.80;99.90;;;17.29;100.00;-6546.28;5041908;28;20430;-73
2021/05/11 14:24:59;;;;;;;0.70;0.70;;;15.80;99.90;;;16.99;100.00;-5802.97;5051140;28;20538;-72
2021/05/11 14:27:28;;;;;;;0.77;0.67;;;15.80;99.90;;;17.14;100.00;-4330.84;5049991;28;20432;-72
2021/05/11 14:29:56;;;;;;;0.70;0.60;;;15.70;99.90;;;17.17;100.00;-6403.47;5052129;28;20458;-73
2021/05/11 14:32:24;;;;;;;0.70;0.60;;;15.70;99.90;;;17.34;100.00;-7517.69;5047673;28;20463;-72
2021/05/11 14:34:52;;;;;;;0.70;0.60;;;15.70;99.90;;;17.31;100.00;-7853.06;5086016;28;20443;-73
2021/05/11 14:37:22;;;;;;;0.70;0.70;;;15.80;99.90;;;17.33;100.00;-8778.28;5034460;28;20511;-73
2021/05/11 14:39:49;;;;;;;0.70;0.63;;;15.70;99.90;;;17.03;100.00;-9837.56;5029333;28;20479;-73
2021/05/11 14:42:18;;;;;;;0.80;0.70;;;15.60;99.90;;;16.80;100.00;-8962.34;5084066;28;20891;-72